sensor_id;sensor_type;location;lat;lon;timestamp;temperature;humidity
67868;SHT31;54672;46.096;14.470;2023-11-18T00:01:49;3.25;81.16
67868;SHT31;54672;46.096;14.470;2023-11-18T00:04:14;3.12;81.68
67868;SHT31;54672;46.096;14.470;2023-11-18T00:06:44;3.16;81.09
67868;SHT31;54672;46.096;14.470;2023-11-18T00:09:12;3.04;81.73
67868;SHT31;54672;46.096;14.470;2023-11-18T00:11:41;2.90;82.42
67868;SHT31;54672;46.096;14.470;2023-11-18T00:14:08;2.81;83.12
67868;SHT31;54672;46.096;14.470;2023-11-18T00:16:33;2.79;82.93
67868;SHT31;54672;46.096;14.470;2023-11-18T00:19:00;2.71;82.57
67868;SHT31;54672;46.096;14.470;2023-11-18T00:21:26;2.70;82.44
67868;SHT31;54672;46.096;14.470;2023-11-18T00:23:53;2.67;83.61
67868;SHT31;54672;46.096;14.470;2023-11-18T00:26:18;2.61;83.89
67868;SHT31;54672;46.096;14.470;2023-11-18T00:28:44;2.63;84.38
67868;SHT31;54672;46.096;14.470;2023-11-18T00:31:09;2.63;84.39
67868;SHT31;54672;46.096;14.470;2023-11-18T00:33:35;2.61;84.28
67868;SHT31;54672;46.096;14.470;2023-11-18T00:36:00;2.53;84.36
67868;SHT31;54672;46.096;14.470;2023-11-18T00:38:26;2.53;83.44
67868;SHT31;54672;46.096;14.470;2023-11-18T00:40:51;2.60;83.12
67868;SHT31;54672;46.096;14.470;2023-11-18T00:43:17;2.50;84.30
67868;SHT31;54672;46.096;14.470;2023-11-18T00:45:43;2.23;85.49
67868;SHT31;54672;46.096;14.470;2023-11-18T00:48:09;2.19;85.06
67868;SHT31;54672;46.096;14.470;2023-11-18T00:50:35;2.19;85.37
67868;SHT31;54672;46.096;14.470;2023-11-18T00:53:01;2.18;85.73
67868;SHT31;54672;46.096;14.470;2023-11-18T00:55:26;2.08;86.13
67868;SHT31;54672;46.096;14.470;2023-11-18T00:57:52;2.02;86.97
67868;SHT31;54672;46.096;14.470;2023-11-18T01:00:18;1.95;86.51
67868;SHT31;54672;46.096;14.470;2023-11-18T01:02:47;1.88;86.16
67868;SHT31;54672;46.096;14.470;2023-11-18T01:05:15;1.82;86.87
67868;SHT31;54672;46.096;14.470;2023-11-18T01:07:40;1.85;87.59
67868;SHT31;54672;46.096;14.470;2023-11-18T01:10:07;1.79;87.73
67868;SHT31;54672;46.096;14.470;2023-11-18T01:12:33;1.75;87.60
67868;SHT31;54672;46.096;14.470;2023-11-18T01:14:59;1.71;87.78
67868;SHT31;54672;46.096;14.470;2023-11-18T01:17:24;1.74;88.26
67868;SHT31;54672;46.096;14.470;2023-11-18T01:19:50;1.78;88.27
67868;SHT31;54672;46.096;14.470;2023-11-18T01:22:15;1.79;88.39
67868;SHT31;54672;46.096;14.470;2023-11-18T01:24:41;1.68;88.52
67868;SHT31;54672;46.096;14.470;2023-11-18T01:27:06;1.62;88.85
67868;SHT31;54672;46.096;14.470;2023-11-18T01:29:38;1.68;88.46
67868;SHT31;54672;46.096;14.470;2023-11-18T01:32:07;1.92;88.02
67868;SHT31;54672;46.096;14.470;2023-11-18T01:34:36;2.02;87.22
67868;SHT31;54672;46.096;14.470;2023-11-18T01:37:06;2.23;86.13
67868;SHT31;54672;46.096;14.470;2023-11-18T01:39:36;2.12;86.65
67868;SHT31;54672;46.096;14.470;2023-11-18T01:42:02;2.01;87.16
67868;SHT31;54672;46.096;14.470;2023-11-18T01:44:28;2.16;86.39
67868;SHT31;54672;46.096;14.470;2023-11-18T01:46:58;2.16;85.94
67868;SHT31;54672;46.096;14.470;2023-11-18T01:49:24;2.11;86.75
67868;SHT31;54672;46.096;14.470;2023-11-18T01:51:52;2.08;87.22
67868;SHT31;54672;46.096;14.470;2023-11-18T01:54:18;1.84;87.99
67868;SHT31;54672;46.096;14.470;2023-11-18T01:56:47;1.84;88.15
67868;SHT31;54672;46.096;14.470;2023-11-18T01:59:13;1.82;88.17
67868;SHT31;54672;46.096;14.470;2023-11-18T02:01:51;1.85;88.66
67868;SHT31;54672;46.096;14.470;2023-11-18T02:04:18;1.97;88.00
67868;SHT31;54672;46.096;14.470;2023-11-18T02:06:45;1.95;88.11
67868;SHT31;54672;46.096;14.470;2023-11-18T02:09:14;1.94;88.05
67868;SHT31;54672;46.096;14.470;2023-11-18T02:11:44;1.91;88.39
67868;SHT31;54672;46.096;14.470;2023-11-18T02:14:13;1.92;88.54
67868;SHT31;54672;46.096;14.470;2023-11-18T02:16:42;1.95;88.77
67868;SHT31;54672;46.096;14.470;2023-11-18T02:19:15;1.95;88.90
67868;SHT31;54672;46.096;14.470;2023-11-18T02:21:43;1.94;88.54
67868;SHT31;54672;46.096;14.470;2023-11-18T02:24:09;1.97;89.05
67868;SHT31;54672;46.096;14.470;2023-11-18T02:26:35;1.95;88.75
67868;SHT31;54672;46.096;14.470;2023-11-18T02:29:00;1.91;88.59
67868;SHT31;54672;46.096;14.470;2023-11-18T02:31:30;1.84;88.68
67868;SHT31;54672;46.096;14.470;2023-11-18T02:34:12;1.68;89.49
67868;SHT31;54672;46.096;14.470;2023-11-18T02:36:46;1.84;88.82
67868;SHT31;54672;46.096;14.470;2023-11-18T02:39:18;1.89;88.94
67868;SHT31;54672;46.096;14.470;2023-11-18T02:41:48;1.97;88.75
67868;SHT31;54672;46.096;14.470;2023-11-18T02:44:17;1.98;88.31
67868;SHT31;54672;46.096;14.470;2023-11-18T02:46:43;1.92;88.49
67868;SHT31;54672;46.096;14.470;2023-11-18T02:49:10;1.91;88.51
67868;SHT31;54672;46.096;14.470;2023-11-18T02:51:35;1.79;88.63
67868;SHT31;54672;46.096;14.470;2023-11-18T02:54:07;1.68;89.45
67868;SHT31;54672;46.096;14.470;2023-11-18T02:56:36;1.65;89.74
67868;SHT31;54672;46.096;14.470;2023-11-18T02:59:02;1.62;89.81
67868;SHT31;54672;46.096;14.470;2023-11-18T03:01:30;1.61;89.92
67868;SHT31;54672;46.096;14.470;2023-11-18T03:03:56;1.61;90.44
67868;SHT31;54672;46.096;14.470;2023-11-18T03:06:21;1.58;90.39
67868;SHT31;54672;46.096;14.470;2023-11-18T03:08:47;1.51;90.56
67868;SHT31;54672;46.096;14.470;2023-11-18T03:11:12;1.50;90.57
67868;SHT31;54672;46.096;14.470;2023-11-18T03:13:38;1.48;90.69
67868;SHT31;54672;46.096;14.470;2023-11-18T03:16:07;1.57;90.91
67868;SHT31;54672;46.096;14.470;2023-11-18T03:18:36;1.43;91.20
67868;SHT31;54672;46.096;14.470;2023-11-18T03:21:03;1.44;91.35
67868;SHT31;54672;46.096;14.470;2023-11-18T03:23:32;1.31;91.53
67868;SHT31;54672;46.096;14.470;2023-11-18T03:25:58;1.41;91.12
67868;SHT31;54672;46.096;14.470;2023-11-18T03:28:23;1.31;91.14
67868;SHT31;54672;46.096;14.470;2023-11-18T03:30:49;1.27;91.18
67868;SHT31;54672;46.096;14.470;2023-11-18T03:33:14;1.29;91.08
67868;SHT31;54672;46.096;14.470;2023-11-18T03:35:39;1.07;91.77
67868;SHT31;54672;46.096;14.470;2023-11-18T03:38:05;0.97;92.04
67868;SHT31;54672;46.096;14.470;2023-11-18T03:40:30;0.99;91.85
67868;SHT31;54672;46.096;14.470;2023-11-18T03:42:56;0.82;92.70
67868;SHT31;54672;46.096;14.470;2023-11-18T03:45:23;0.75;92.93
67868;SHT31;54672;46.096;14.470;2023-11-18T03:47:49;0.85;92.40
67868;SHT31;54672;46.096;14.470;2023-11-18T03:50:16;0.95;92.23
67868;SHT31;54672;46.096;14.470;2023-11-18T03:52:41;0.95;92.30
67868;SHT31;54672;46.096;14.470;2023-11-18T03:55:07;0.93;91.92
67868;SHT31;54672;46.096;14.470;2023-11-18T03:57:33;0.91;91.83
67868;SHT31;54672;46.096;14.470;2023-11-18T03:59:59;0.88;91.39
67868;SHT31;54672;46.096;14.470;2023-11-18T04:02:25;0.89;91.92
67868;SHT31;54672;46.096;14.470;2023-11-18T04:04:50;0.91;91.91
67868;SHT31;54672;46.096;14.470;2023-11-18T04:07:16;0.92;92.07
67868;SHT31;54672;46.096;14.470;2023-11-18T04:09:41;0.85;91.95
67868;SHT31;54672;46.096;14.470;2023-11-18T04:12:08;0.78;92.84
67868;SHT31;54672;46.096;14.470;2023-11-18T04:14:35;0.75;93.22
67868;SHT31;54672;46.096;14.470;2023-11-18T04:17:00;0.71;93.48
67868;SHT31;54672;46.096;14.470;2023-11-18T04:19:25;0.68;93.96
67868;SHT31;54672;46.096;14.470;2023-11-18T04:21:51;0.68;93.91
67868;SHT31;54672;46.096;14.470;2023-11-18T04:24:16;0.81;94.12
67868;SHT31;54672;46.096;14.470;2023-11-18T04:26:42;0.92;93.02
67868;SHT31;54672;46.096;14.470;2023-11-18T04:29:07;0.78;93.03
67868;SHT31;54672;46.096;14.470;2023-11-18T04:31:33;0.71;93.78
67868;SHT31;54672;46.096;14.470;2023-11-18T04:33:59;0.64;93.82
67868;SHT31;54672;46.096;14.470;2023-11-18T04:36:25;0.57;93.78
67868;SHT31;54672;46.096;14.470;2023-11-18T04:38:52;0.51;94.33
67868;SHT31;54672;46.096;14.470;2023-11-18T04:41:17;0.47;94.59
67868;SHT31;54672;46.096;14.470;2023-11-18T04:43:42;0.64;94.22
67868;SHT31;54672;46.096;14.470;2023-11-18T04:46:08;0.64;93.71
67868;SHT31;54672;46.096;14.470;2023-11-18T04:48:34;0.61;93.82
67868;SHT31;54672;46.096;14.470;2023-11-18T04:51:00;0.54;94.33
67868;SHT31;54672;46.096;14.470;2023-11-18T04:53:25;0.40;94.60
67868;SHT31;54672;46.096;14.470;2023-11-18T04:55:51;0.34;94.56
67868;SHT31;54672;46.096;14.470;2023-11-18T04:58:17;0.38;94.07
67868;SHT31;54672;46.096;14.470;2023-11-18T05:00:42;0.34;94.45
67868;SHT31;54672;46.096;14.470;2023-11-18T05:03:08;0.32;94.78
67868;SHT31;54672;46.096;14.470;2023-11-18T05:05:38;0.40;94.92
67868;SHT31;54672;46.096;14.470;2023-11-18T05:08:05;0.28;94.79
67868;SHT31;54672;46.096;14.470;2023-11-18T05:10:34;0.27;94.99
67868;SHT31;54672;46.096;14.470;2023-11-18T05:13:00;0.22;94.88
67868;SHT31;54672;46.096;14.470;2023-11-18T05:15:26;0.22;94.76
67868;SHT31;54672;46.096;14.470;2023-11-18T05:17:52;0.20;95.11
67868;SHT31;54672;46.096;14.470;2023-11-18T05:20:18;0.22;95.36
67868;SHT31;54672;46.096;14.470;2023-11-18T05:22:44;0.27;95.51
67868;SHT31;54672;46.096;14.470;2023-11-18T05:25:09;0.27;95.34
67868;SHT31;54672;46.096;14.470;2023-11-18T05:27:35;0.21;94.99
67868;SHT31;54672;46.096;14.470;2023-11-18T05:30:01;0.20;94.84
67868;SHT31;54672;46.096;14.470;2023-11-18T05:32:29;0.20;95.51
67868;SHT31;54672;46.096;14.470;2023-11-18T05:34:55;0.22;95.11
67868;SHT31;54672;46.096;14.470;2023-11-18T05:37:23;0.20;95.41
67868;SHT31;54672;46.096;14.470;2023-11-18T05:39:48;0.20;95.41
67868;SHT31;54672;46.096;14.470;2023-11-18T05:42:19;0.11;95.29
67868;SHT31;54672;46.096;14.470;2023-11-18T05:44:44;0.07;95.23
67868;SHT31;54672;46.096;14.470;2023-11-18T05:47:10;0.03;95.43
67868;SHT31;54672;46.096;14.470;2023-11-18T05:49:38;0.03;95.66
67868;SHT31;54672;46.096;14.470;2023-11-18T05:52:05;0.07;95.68
67868;SHT31;54672;46.096;14.470;2023-11-18T05:54:32;-0.03;95.52
67868;SHT31;54672;46.096;14.470;2023-11-18T05:56:57;0.00;95.57
67868;SHT31;54672;46.096;14.470;2023-11-18T05:59:25;-0.03;95.76
67868;SHT31;54672;46.096;14.470;2023-11-18T06:01:52;-0.14;95.49
67868;SHT31;54672;46.096;14.470;2023-11-18T06:04:17;-0.15;95.66
67868;SHT31;54672;46.096;14.470;2023-11-18T06:06:43;-0.17;96.22
67868;SHT31;54672;46.096;14.470;2023-11-18T06:09:08;-0.24;96.25
67868;SHT31;54672;46.096;14.470;2023-11-18T06:11:40;-0.20;96.52
67868;SHT31;54672;46.096;14.470;2023-11-18T06:14:06;-0.22;96.58
67868;SHT31;54672;46.096;14.470;2023-11-18T06:16:33;0.00;96.41
67868;SHT31;54672;46.096;14.470;2023-11-18T06:19:00;0.57;94.83
67868;SHT31;54672;46.096;14.470;2023-11-18T06:21:30;1.23;94.13
67868;SHT31;54672;46.096;14.470;2023-11-18T06:23:57;1.03;91.30
67868;SHT31;54672;46.096;14.470;2023-11-18T06:26:23;1.88;90.27
67868;SHT31;54672;46.096;14.470;2023-11-18T06:28:53;2.53;87.25
67868;SHT31;54672;46.096;14.470;2023-11-18T06:31:19;2.91;85.57
67868;SHT31;54672;46.096;14.470;2023-11-18T06:33:46;2.37;86.63
67868;SHT31;54672;46.096;14.470;2023-11-18T06:38:45;3.21;83.59
67868;SHT31;54672;46.096;14.470;2023-11-18T06:41:10;2.64;85.46
67868;SHT31;54672;46.096;14.470;2023-11-18T06:43:39;3.19;84.17
67868;SHT31;54672;46.096;14.470;2023-11-18T06:46:22;3.79;82.38
67868;SHT31;54672;46.096;14.470;2023-11-18T06:48:51;4.53;79.85
67868;SHT31;54672;46.096;14.470;2023-11-18T06:51:23;3.98;78.13
67868;SHT31;54672;46.096;14.470;2023-11-18T06:53:53;4.18;81.89
67868;SHT31;54672;46.096;14.470;2023-11-18T06:56:26;4.93;78.12
67868;SHT31;54672;46.096;14.470;2023-11-18T06:58:52;4.44;79.85
67868;SHT31;54672;46.096;14.470;2023-11-18T07:01:18;5.34;76.18
67868;SHT31;54672;46.096;14.470;2023-11-18T07:03:44;3.94;81.56
67868;SHT31;54672;46.096;14.470;2023-11-18T07:06:10;5.31;76.96
67868;SHT31;54672;46.096;14.470;2023-11-18T07:08:36;5.33;76.70
67868;SHT31;54672;46.096;14.470;2023-11-18T07:11:03;5.92;74.97
67868;SHT31;54672;46.096;14.470;2023-11-18T07:13:29;6.27;73.04
67868;SHT31;54672;46.096;14.470;2023-11-18T07:15:54;5.78;74.53
67868;SHT31;54672;46.096;14.470;2023-11-18T07:18:22;6.03;73.78
67868;SHT31;54672;46.096;14.470;2023-11-18T07:20:50;5.84;74.14
67868;SHT31;54672;46.096;14.470;2023-11-18T07:23:18;5.41;75.40
67868;SHT31;54672;46.096;14.470;2023-11-18T07:25:44;5.16;76.72
67868;SHT31;54672;46.096;14.470;2023-11-18T07:28:11;5.24;76.36
67868;SHT31;54672;46.096;14.470;2023-11-18T07:30:36;4.97;77.17
67868;SHT31;54672;46.096;14.470;2023-11-18T07:33:03;4.68;77.92
67868;SHT31;54672;46.096;14.470;2023-11-18T07:35:28;4.21;79.16
67868;SHT31;54672;46.096;14.470;2023-11-18T07:37:55;4.14;79.44
67868;SHT31;54672;46.096;14.470;2023-11-18T07:40:21;3.98;80.27
67868;SHT31;54672;46.096;14.470;2023-11-18T07:42:54;4.17;79.82
67868;SHT31;54672;46.096;14.470;2023-11-18T07:45:21;4.83;78.46
67868;SHT31;54672;46.096;14.470;2023-11-18T07:47:49;5.72;75.79
67868;SHT31;54672;46.096;14.470;2023-11-18T07:50:19;5.91;75.81
67868;SHT31;54672;46.096;14.470;2023-11-18T07:52:47;6.85;73.86
67868;SHT31;54672;46.096;14.470;2023-11-18T07:55:16;7.59;71.81
67868;SHT31;54672;46.096;14.470;2023-11-18T07:57:41;7.85;70.07
67868;SHT31;54672;46.096;14.470;2023-11-18T08:00:08;8.31;68.72
67868;SHT31;54672;46.096;14.470;2023-11-18T08:02:36;8.39;68.01
67868;SHT31;54672;46.096;14.470;2023-11-18T08:05:05;9.61;65.31
67868;SHT31;54672;46.096;14.470;2023-11-18T08:07:40;8.97;66.88
67868;SHT31;54672;46.096;14.470;2023-11-18T08:10:07;9.07;66.64
67868;SHT31;54672;46.096;14.470;2023-11-18T08:12:38;7.99;70.15
67868;SHT31;54672;46.096;14.470;2023-11-18T08:15:05;9.14;66.63
67868;SHT31;54672;46.096;14.470;2023-11-18T08:17:31;9.81;64.22
67868;SHT31;54672;46.096;14.470;2023-11-18T08:19:57;9.86;64.64
67868;SHT31;54672;46.096;14.470;2023-11-18T08:22:23;8.99;66.73
67868;SHT31;54672;46.096;14.470;2023-11-18T08:24:49;8.29;68.03
67868;SHT31;54672;46.096;14.470;2023-11-18T08:27:15;7.18;71.11
67868;SHT31;54672;46.096;14.470;2023-11-18T08:29:40;6.54;72.84
67868;SHT31;54672;46.096;14.470;2023-11-18T08:32:06;5.92;75.57
67868;SHT31;54672;46.096;14.470;2023-11-18T08:34:35;4.93;79.46
67868;SHT31;54672;46.096;14.470;2023-11-18T08:37:05;5.09;78.69
67868;SHT31;54672;46.096;14.470;2023-11-18T08:39:30;5.10;79.07
67868;SHT31;54672;46.096;14.470;2023-11-18T08:41:57;5.27;79.60
67868;SHT31;54672;46.096;14.470;2023-11-18T08:44:22;5.44;78.62
67868;SHT31;54672;46.096;14.470;2023-11-18T08:46:52;5.20;79.27
67868;SHT31;54672;46.096;14.470;2023-11-18T08:49:18;5.20;79.02
67868;SHT31;54672;46.096;14.470;2023-11-18T08:51:48;5.40;77.73
67868;SHT31;54672;46.096;14.470;2023-11-18T08:54:15;5.59;77.74
67868;SHT31;54672;46.096;14.470;2023-11-18T08:56:53;5.62;77.91
67868;SHT31;54672;46.096;14.470;2023-11-18T08:59:23;5.71;78.28
67868;SHT31;54672;46.096;14.470;2023-11-18T09:01:54;5.65;78.13
67868;SHT31;54672;46.096;14.470;2023-11-18T09:04:27;5.58;77.02
67868;SHT31;54672;46.096;14.470;2023-11-18T09:06:53;5.71;77.40
67868;SHT31;54672;46.096;14.470;2023-11-18T09:09:22;5.89;76.69
67868;SHT31;54672;46.096;14.470;2023-11-18T09:11:55;6.01;76.29
67868;SHT31;54672;46.096;14.470;2023-11-18T09:14:26;5.96;76.49
67868;SHT31;54672;46.096;14.470;2023-11-18T09:16:52;6.12;76.31
67868;SHT31;54672;46.096;14.470;2023-11-18T09:19:20;6.15;75.43
67868;SHT31;54672;46.096;14.470;2023-11-18T09:21:47;6.33;76.41
67868;SHT31;54672;46.096;14.470;2023-11-18T09:24:12;6.29;73.17
67868;SHT31;54672;46.096;14.470;2023-11-18T09:26:40;6.41;72.96
67868;SHT31;54672;46.096;14.470;2023-11-18T09:29:06;6.41;73.50
67868;SHT31;54672;46.096;14.470;2023-11-18T09:31:36;6.61;74.33
67868;SHT31;54672;46.096;14.470;2023-11-18T09:34:03;6.70;75.21
67868;SHT31;54672;46.096;14.470;2023-11-18T09:36:32;6.77;75.23
67868;SHT31;54672;46.096;14.470;2023-11-18T09:38:59;6.87;74.17
67868;SHT31;54672;46.096;14.470;2023-11-18T09:41:25;6.94;73.72
67868;SHT31;54672;46.096;14.470;2023-11-18T09:43:52;6.92;73.21
67868;SHT31;54672;46.096;14.470;2023-11-18T09:46:24;7.04;73.49
67868;SHT31;54672;46.096;14.470;2023-11-18T09:48:57;7.08;73.61
67868;SHT31;54672;46.096;14.470;2023-11-18T09:51:28;7.20;74.19
67868;SHT31;54672;46.096;14.470;2023-11-18T09:54:01;7.46;72.99
67868;SHT31;54672;46.096;14.470;2023-11-18T09:57:08;7.36;71.67
67868;SHT31;54672;46.096;14.470;2023-11-18T09:59:49;7.47;71.35
67868;SHT31;54672;46.096;14.470;2023-11-18T10:02:20;7.47;71.52
67868;SHT31;54672;46.096;14.470;2023-11-18T10:04:48;7.74;71.64
67868;SHT31;54672;46.096;14.470;2023-11-18T10:07:16;7.74;71.93
67868;SHT31;54672;46.096;14.470;2023-11-18T10:09:44;7.64;70.95
67868;SHT31;54672;46.096;14.470;2023-11-18T10:12:11;7.50;70.80
67868;SHT31;54672;46.096;14.470;2023-11-18T10:14:42;7.71;69.79
67868;SHT31;54672;46.096;14.470;2023-11-18T10:17:09;7.70;68.65
67868;SHT31;54672;46.096;14.470;2023-11-18T10:19:56;7.97;68.13
67868;SHT31;54672;46.096;14.470;2023-11-18T10:22:29;8.21;67.96
67868;SHT31;54672;46.096;14.470;2023-11-18T10:24:58;8.41;66.20
67868;SHT31;54672;46.096;14.470;2023-11-18T10:27:29;8.35;65.91
67868;SHT31;54672;46.096;14.470;2023-11-18T10:30:01;8.35;65.16
67868;SHT31;54672;46.096;14.470;2023-11-18T10:32:27;8.45;65.08
67868;SHT31;54672;46.096;14.470;2023-11-18T10:34:59;8.48;65.39
67868;SHT31;54672;46.096;14.470;2023-11-18T10:37:27;8.55;64.32
67868;SHT31;54672;46.096;14.470;2023-11-18T10:39:56;8.76;64.87
67868;SHT31;54672;46.096;14.470;2023-11-18T10:42:25;8.53;61.49
67868;SHT31;54672;46.096;14.470;2023-11-18T10:44:58;8.67;61.98
67868;SHT31;54672;46.096;14.470;2023-11-18T10:47:25;8.84;61.48
67868;SHT31;54672;46.096;14.470;2023-11-18T10:49:53;8.87;63.90
67868;SHT31;54672;46.096;14.470;2023-11-18T10:52:19;8.81;61.56
67868;SHT31;54672;46.096;14.470;2023-11-18T10:54:54;8.84;61.10
67868;SHT31;54672;46.096;14.470;2023-11-18T10:57:22;8.77;61.97
67868;SHT31;54672;46.096;14.470;2023-11-18T11:00:01;8.77;61.36
67868;SHT31;54672;46.096;14.470;2023-11-18T11:02:30;8.84;61.10
67868;SHT31;54672;46.096;14.470;2023-11-18T11:05:00;8.62;62.13
67868;SHT31;54672;46.096;14.470;2023-11-18T11:07:26;8.56;62.79
67868;SHT31;54672;46.096;14.470;2023-11-18T11:09:51;8.79;61.07
67868;SHT31;54672;46.096;14.470;2023-11-18T11:12:23;9.00;59.49
67868;SHT31;54672;46.096;14.470;2023-11-18T11:15:12;9.20;59.41
67868;SHT31;54672;46.096;14.470;2023-11-18T11:17:48;9.08;59.26
67868;SHT31;54672;46.096;14.470;2023-11-18T11:20:21;9.28;59.27
67868;SHT31;54672;46.096;14.470;2023-11-18T11:25:55;9.31;58.68
67868;SHT31;54672;46.096;14.470;2023-11-18T11:28:28;9.46;59.01
67868;SHT31;54672;46.096;14.470;2023-11-18T11:31:23;9.54;57.93
67868;SHT31;54672;46.096;14.470;2023-11-18T11:33:59;9.49;57.93
67868;SHT31;54672;46.096;14.470;2023-11-18T11:36:51;9.48;58.26
67868;SHT31;54672;46.096;14.470;2023-11-18T11:39:18;9.56;58.37
67868;SHT31;54672;46.096;14.470;2023-11-18T11:41:52;9.78;57.93
67868;SHT31;54672;46.096;14.470;2023-11-18T11:44:20;9.78;57.77
67868;SHT31;54672;46.096;14.470;2023-11-18T11:46:47;9.83;57.10
67868;SHT31;54672;46.096;14.470;2023-11-18T11:49:19;9.82;57.16
67868;SHT31;54672;46.096;14.470;2023-11-18T11:52:10;9.96;57.11
67868;SHT31;54672;46.096;14.470;2023-11-18T11:55:00;10.24;56.79
67868;SHT31;54672;46.096;14.470;2023-11-18T11:57:32;10.24;56.86
67868;SHT31;54672;46.096;14.470;2023-11-18T12:00:02;10.07;56.62
67868;SHT31;54672;46.096;14.470;2023-11-18T12:02:47;9.97;56.65
67868;SHT31;54672;46.096;14.470;2023-11-18T12:05:16;10.05;57.16
67868;SHT31;54672;46.096;14.470;2023-11-18T12:07:44;10.03;57.18
67868;SHT31;54672;46.096;14.470;2023-11-18T12:10:11;10.18;57.35
67868;SHT31;54672;46.096;14.470;2023-11-18T12:12:45;10.38;57.50
67868;SHT31;54672;46.096;14.470;2023-11-18T12:15:11;10.41;56.35
67868;SHT31;54672;46.096;14.470;2023-11-18T12:20:38;10.43;57.01
67868;SHT31;54672;46.096;14.470;2023-11-18T12:23:14;10.38;58.11
67868;SHT31;54672;46.096;14.470;2023-11-18T12:25:43;10.43;57.21
67868;SHT31;54672;46.096;14.470;2023-11-18T12:28:17;10.34;57.27
67868;SHT31;54672;46.096;14.470;2023-11-18T12:30:47;10.40;56.29
67868;SHT31;54672;46.096;14.470;2023-11-18T12:33:27;10.29;56.68
67868;SHT31;54672;46.096;14.470;2023-11-18T12:42:03;9.93;58.20
67868;SHT31;54672;46.096;14.470;2023-11-18T12:47:36;9.81;58.75
67868;SHT31;54672;46.096;14.470;2023-11-18T12:50:09;9.87;58.20
67868;SHT31;54672;46.096;14.470;2023-11-18T12:52:43;9.89;58.75
67868;SHT31;54672;46.096;14.470;2023-11-18T12:55:11;9.83;58.30
67868;SHT31;54672;46.096;14.470;2023-11-18T12:57:46;9.75;58.91
67868;SHT31;54672;46.096;14.470;2023-11-18T13:00:13;9.62;59.29
67868;SHT31;54672;46.096;14.470;2023-11-18T13:02:42;9.56;58.91
67868;SHT31;54672;46.096;14.470;2023-11-18T13:05:08;9.54;59.17
67868;SHT31;54672;46.096;14.470;2023-11-18T13:07:38;9.68;58.30
67868;SHT31;54672;46.096;14.470;2023-11-18T13:10:05;9.58;58.87
67868;SHT31;54672;46.096;14.470;2023-11-18T13:12:31;9.51;58.38
67868;SHT31;54672;46.096;14.470;2023-11-18T13:14:56;9.52;58.84
67868;SHT31;54672;46.096;14.470;2023-11-18T13:17:22;9.44;59.51
67868;SHT31;54672;46.096;14.470;2023-11-18T13:19:47;9.51;58.52
67868;SHT31;54672;46.096;14.470;2023-11-18T13:22:16;9.44;58.93
67868;SHT31;54672;46.096;14.470;2023-11-18T13:24:45;9.34;59.59
67868;SHT31;54672;46.096;14.470;2023-11-18T13:27:13;9.32;60.30
67868;SHT31;54672;46.096;14.470;2023-11-18T13:29:43;9.28;60.96
67868;SHT31;54672;46.096;14.470;2023-11-18T13:32:11;9.21;59.81
67868;SHT31;54672;46.096;14.470;2023-11-18T13:34:37;9.24;60.00
67868;SHT31;54672;46.096;14.470;2023-11-18T13:37:08;9.18;62.94
67868;SHT31;54672;46.096;14.470;2023-11-18T13:39:35;9.20;65.35
67868;SHT31;54672;46.096;14.470;2023-11-18T13:42:26;9.25;60.55
67868;SHT31;54672;46.096;14.470;2023-11-18T13:44:53;9.28;63.39
67868;SHT31;54672;46.096;14.470;2023-11-18T13:47:26;9.20;61.30
67868;SHT31;54672;46.096;14.470;2023-11-18T13:49:54;9.21;64.82
67868;SHT31;54672;46.096;14.470;2023-11-18T13:52:20;9.24;66.82
67868;SHT31;54672;46.096;14.470;2023-11-18T13:54:47;9.18;66.71
67868;SHT31;54672;46.096;14.470;2023-11-18T13:57:13;9.18;66.74
67868;SHT31;54672;46.096;14.470;2023-11-18T13:59:39;9.10;67.65
67868;SHT31;54672;46.096;14.470;2023-11-18T14:02:05;8.99;66.69
67868;SHT31;54672;46.096;14.470;2023-11-18T14:04:33;9.01;66.11
67868;SHT31;54672;46.096;14.470;2023-11-18T14:07:01;8.97;66.96
67868;SHT31;54672;46.096;14.470;2023-11-18T14:09:31;8.86;67.27
67868;SHT31;54672;46.096;14.470;2023-11-18T14:12:01;8.80;68.37
67868;SHT31;54672;46.096;14.470;2023-11-18T14:14:27;8.72;69.04
67868;SHT31;54672;46.096;14.470;2023-11-18T14:16:53;8.65;69.23
67868;SHT31;54672;46.096;14.470;2023-11-18T14:19:23;8.56;68.67
67868;SHT31;54672;46.096;14.470;2023-11-18T14:21:50;8.49;68.78
67868;SHT31;54672;46.096;14.470;2023-11-18T14:24:16;8.48;68.35
67868;SHT31;54672;46.096;14.470;2023-11-18T14:26:43;8.44;69.07
67868;SHT31;54672;46.096;14.470;2023-11-18T14:29:09;8.39;69.10
67868;SHT31;54672;46.096;14.470;2023-11-18T14:31:36;8.34;68.39
67868;SHT31;54672;46.096;14.470;2023-11-18T14:34:03;8.25;67.90
67868;SHT31;54672;46.096;14.470;2023-11-18T14:36:29;8.21;68.84
67868;SHT31;54672;46.096;14.470;2023-11-18T14:38:54;8.12;68.67
67868;SHT31;54672;46.096;14.470;2023-11-18T14:41:20;8.04;68.72
67868;SHT31;54672;46.096;14.470;2023-11-18T14:43:50;7.97;69.59
67868;SHT31;54672;46.096;14.470;2023-11-18T14:46:15;7.94;70.70
67868;SHT31;54672;46.096;14.470;2023-11-18T14:48:41;7.83;69.13
67868;SHT31;54672;46.096;14.470;2023-11-18T14:51:06;7.76;68.88
67868;SHT31;54672;46.096;14.470;2023-11-18T14:53:33;7.69;69.90
67868;SHT31;54672;46.096;14.470;2023-11-18T14:55:59;7.60;70.48
67868;SHT31;54672;46.096;14.470;2023-11-18T14:58:25;7.49;70.97
67868;SHT31;54672;46.096;14.470;2023-11-18T15:00:51;7.42;71.11
67868;SHT31;54672;46.096;14.470;2023-11-18T15:03:17;7.35;72.06
67868;SHT31;54672;46.096;14.470;2023-11-18T15:05:42;7.26;72.39
67868;SHT31;54672;46.096;14.470;2023-11-18T15:08:09;7.15;72.79
67868;SHT31;54672;46.096;14.470;2023-11-18T15:10:34;7.01;72.92
67868;SHT31;54672;46.096;14.470;2023-11-18T15:13:02;6.88;73.00
67868;SHT31;54672;46.096;14.470;2023-11-18T15:15:30;6.84;72.83
67868;SHT31;54672;46.096;14.470;2023-11-18T15:18:03;6.71;73.62
67868;SHT31;54672;46.096;14.470;2023-11-18T15:20:29;6.60;74.79
67868;SHT31;54672;46.096;14.470;2023-11-18T15:22:55;6.47;76.12
67868;SHT31;54672;46.096;14.470;2023-11-18T15:25:20;6.44;76.07
67868;SHT31;54672;46.096;14.470;2023-11-18T15:27:47;6.40;74.81
67868;SHT31;54672;46.096;14.470;2023-11-18T15:30:16;6.32;74.54
67868;SHT31;54672;46.096;14.470;2023-11-18T15:32:43;6.20;74.96
67868;SHT31;54672;46.096;14.470;2023-11-18T15:35:10;6.12;76.29
67868;SHT31;54672;46.096;14.470;2023-11-18T15:37:36;6.10;76.82
67868;SHT31;54672;46.096;14.470;2023-11-18T15:40:05;5.99;77.12
67868;SHT31;54672;46.096;14.470;2023-11-18T15:42:39;5.92;77.74
67868;SHT31;54672;46.096;14.470;2023-11-18T15:47:35;5.84;77.80
67868;SHT31;54672;46.096;14.470;2023-11-18T15:50:02;5.71;78.42
67868;SHT31;54672;46.096;14.470;2023-11-18T15:52:28;5.58;79.69
67868;SHT31;54672;46.096;14.470;2023-11-18T15:54:54;5.52;79.86
67868;SHT31;54672;46.096;14.470;2023-11-18T15:57:19;5.44;80.00